createdAt,value
2018-05-03T00:00:37.489Z,18.60
2018-05-03T00:01:38.853Z,18.50
2018-05-03T00:02:40.213Z,18.60
2018-05-03T00:03:41.573Z,18.50
2018-05-03T00:04:43.667Z,18.50
2018-05-03T00:05:45.060Z,18.50
2018-05-03T00:06:46.429Z,18.50
2018-05-03T00:07:48.901Z,18.50
2018-05-03T00:08:51.025Z,18.50
2018-05-03T00:09:52.389Z,18.50
2018-05-03T00:10:54.526Z,18.60
2018-05-03T00:11:55.909Z,18.50
2018-05-03T00:12:57.267Z,18.50
2018-05-03T00:13:58.633Z,18.50
2018-05-03T00:14:59.981Z,18.50
2018-05-03T00:16:01.645Z,18.50
2018-05-03T00:17:03.749Z,18.50
2018-05-03T00:18:05.125Z,18.50
2018-05-03T00:19:07.222Z,18.50
2018-05-03T00:20:08.590Z,18.50
2018-05-03T00:21:10.269Z,18.50
2018-05-03T00:22:12.389Z,18.50
2018-05-03T00:23:13.753Z,18.50
2018-05-03T00:24:15.121Z,18.50
2018-05-03T00:25:16.509Z,18.50
2018-05-03T00:26:18.629Z,18.50
2018-05-03T00:27:19.994Z,18.50
2018-05-03T00:28:21.361Z,18.50
2018-05-03T00:29:22.731Z,18.50
2018-05-03T00:30:24.091Z,18.50
2018-05-03T00:31:25.485Z,18.50
2018-05-03T00:32:26.877Z,18.50
2018-05-03T00:33:28.244Z,18.50
2018-05-03T00:34:29.605Z,18.50
2018-05-03T00:35:31.713Z,18.50
2018-05-03T00:36:33.409Z,18.50
2018-05-03T00:37:35.517Z,18.50
2018-05-03T00:38:36.876Z,18.50
2018-05-03T00:39:39.801Z,18.50
2018-05-03T00:40:41.121Z,18.50
2018-05-03T00:41:43.621Z,18.50
2018-05-03T00:42:44.989Z,18.50
2018-05-03T00:43:46.349Z,18.50
2018-05-03T00:44:48.829Z,18.50
2018-05-03T00:45:50.933Z,18.50
2018-05-03T00:46:52.329Z,18.50
2018-05-03T00:47:54.429Z,18.50
2018-05-03T00:48:55.803Z,18.50
2018-05-03T00:49:57.185Z,18.50
2018-05-03T00:50:58.549Z,18.50
2018-05-03T00:51:59.933Z,18.50
2018-05-03T00:53:02.041Z,18.50
2018-05-03T00:54:03.526Z,18.50
2018-05-03T00:55:05.635Z,18.50
2018-05-03T00:56:06.993Z,18.50
2018-05-03T00:57:09.299Z,18.50
2018-05-03T00:58:10.667Z,18.50
2018-05-03T00:59:12.029Z,18.50
2018-05-03T01:00:13.409Z,18.50
2018-05-03T01:01:15.510Z,18.50
2018-05-03T01:02:17.199Z,18.50
2018-05-03T01:03:19.339Z,18.50
2018-05-03T01:04:20.715Z,18.50
2018-05-03T01:05:22.076Z,18.50
2018-05-03T01:06:23.482Z,18.50
2018-05-03T01:07:24.905Z,18.50
2018-05-03T01:08:27.020Z,18.50
2018-05-03T01:09:28.391Z,18.50
2018-05-03T01:10:29.756Z,18.50
2018-05-03T01:11:31.892Z,18.50
2018-05-03T01:13:37.421Z,18.50
2018-05-03T01:14:38.802Z,18.50
2018-05-03T01:15:40.169Z,18.50
2018-05-03T01:16:42.273Z,18.50
2018-05-03T01:17:44.393Z,18.50
2018-05-03T01:18:45.761Z,18.50
2018-05-03T01:19:48.678Z,18.50
2018-05-03T01:20:50.046Z,18.50
2018-05-03T01:21:51.416Z,18.50
2018-05-03T01:22:53.541Z,18.50
2018-05-03T01:23:56.087Z,18.50
2018-05-03T01:24:57.499Z,18.50
2018-05-03T01:25:58.869Z,18.50
2018-05-03T01:27:00.250Z,18.50
2018-05-03T01:28:01.645Z,18.50
2018-05-03T01:29:03.021Z,18.50
2018-05-03T01:30:04.407Z,18.50
2018-05-03T01:31:05.780Z,18.50
2018-05-03T01:32:07.137Z,18.50
2018-05-03T01:33:10.029Z,18.50
2018-05-03T01:34:12.121Z,18.50
2018-05-03T01:35:32.157Z,18.50
2018-05-03T01:36:34.289Z,18.50
2018-05-03T01:37:35.663Z,18.50
2018-05-03T01:39:40.155Z,18.50
2018-05-03T01:40:41.515Z,18.40
2018-05-03T01:41:44.321Z,18.50
2018-05-03T01:42:46.409Z,18.40
2018-05-03T01:43:48.585Z,18.50
2018-05-03T01:44:49.940Z,18.50
2018-05-03T01:46:55.138Z,18.40
2018-05-03T01:47:56.493Z,18.40
2018-05-03T01:48:57.894Z,18.40
2018-05-03T01:49:59.261Z,18.40
2018-05-03T01:51:00.618Z,18.40
2018-05-03T01:53:05.405Z,18.40
2018-05-03T01:54:06.871Z,18.40
2018-05-03T01:55:08.227Z,18.40
2018-05-03T01:56:10.333Z,18.40
2018-05-03T01:57:11.706Z,18.40
2018-05-03T01:58:13.814Z,18.40
2018-05-03T01:59:15.206Z,18.40
2018-05-03T02:00:16.615Z,18.40
2018-05-03T02:01:18.010Z,18.40
2018-05-03T02:02:20.121Z,18.40
2018-05-03T02:03:21.549Z,18.40
2018-05-03T02:04:22.933Z,18.40
2018-05-03T02:05:25.041Z,18.40
2018-05-03T02:06:26.429Z,18.40
2018-05-03T02:07:28.562Z,18.40
2018-05-03T02:08:29.909Z,18.40
2018-05-03T02:09:31.580Z,18.40
2018-05-03T02:11:36.034Z,18.30
2018-05-03T02:12:37.444Z,18.30
2018-05-03T02:13:38.821Z,18.30
2018-05-03T02:14:40.211Z,18.30
2018-05-03T02:15:42.342Z,18.30
2018-05-03T02:16:43.705Z,18.30
2018-05-03T02:17:46.193Z,18.20
2018-05-03T02:18:47.566Z,22.20
2018-05-03T02:19:48.949Z,18.20
2018-05-03T02:20:51.130Z,18.20
2018-05-03T02:21:52.490Z,18.20
2018-05-03T02:22:53.845Z,18.20
2018-05-03T02:23:55.217Z,18.10
2018-05-03T02:24:57.581Z,18.20
2018-05-03T02:25:59.721Z,18.10
2018-05-03T02:27:01.077Z,18.10
2018-05-03T02:28:03.596Z,18.10
2018-05-03T02:29:04.977Z,18.10
2018-05-03T02:31:09.469Z,18.10
2018-05-03T02:32:10.860Z,18.10
2018-05-03T02:33:12.235Z,18.10
2018-05-03T02:34:13.629Z,18.10
2018-05-03T02:35:15.011Z,18.10
2018-05-03T02:36:16.398Z,18.10
2018-05-03T02:37:18.514Z,18.10
2018-05-03T02:38:19.875Z,18.00
2018-05-03T02:39:21.994Z,18.10
2018-05-03T02:40:23.422Z,18.00
2018-05-03T02:41:24.786Z,18.10
2018-05-03T02:42:26.167Z,18.10
2018-05-03T02:43:27.549Z,18.10
2018-05-03T02:44:28.966Z,18.00
2018-05-03T02:45:30.354Z,18.00
2018-05-03T02:46:31.723Z,18.10
2018-05-03T02:47:33.834Z,18.00
2018-05-03T02:48:35.226Z,18.00
2018-05-03T02:49:36.616Z,18.00
2018-05-03T02:50:38.772Z,18.00
2018-05-03T02:51:40.150Z,18.10
2018-05-03T02:52:42.270Z,18.00
2018-05-03T02:53:43.646Z,18.00
2018-05-03T02:54:45.791Z,18.00
2018-05-03T02:55:48.987Z,18.00
2018-05-03T02:56:51.146Z,18.00
2018-05-03T02:58:17.138Z,18.00
2018-05-03T02:59:37.174Z,18.00
2018-05-03T03:01:03.526Z,17.90
2018-05-03T03:02:11.070Z,17.90
2018-05-03T03:05:51.718Z,17.90
2018-05-03T03:14:53.478Z,17.70
2018-05-03T03:16:19.726Z,17.70
2018-05-03T03:19:08.610Z,17.60
2018-05-03T03:20:55.086Z,17.60
2018-05-03T03:22:22.026Z,17.50
2018-05-03T03:23:48.974Z,17.50
2018-05-03T03:28:11.691Z,17.50
2018-05-03T03:29:37.738Z,17.40
2018-05-03T03:31:04.902Z,17.40
2018-05-03T03:32:24.878Z,17.40
2018-05-03T03:33:44.942Z,17.40
2018-05-03T03:34:46.360Z,17.30
2018-05-03T03:36:07.934Z,17.30
2018-05-03T03:39:44.250Z,17.30
2018-05-03T03:41:10.227Z,17.30
2018-05-03T03:42:30.101Z,17.30
2018-05-03T03:43:49.966Z,17.30
2018-05-03T03:44:51.354Z,17.30
2018-05-03T03:45:53.470Z,17.30
2018-05-03T03:46:54.866Z,17.30
2018-05-03T03:47:56.301Z,17.30
2018-05-03T03:48:58.382Z,17.30
2018-05-03T03:49:59.754Z,17.30
2018-05-03T03:51:01.138Z,17.30
2018-05-03T03:52:02.869Z,17.30
2018-05-03T03:53:04.978Z,17.30
2018-05-03T03:54:06.339Z,17.30
2018-05-03T03:55:07.770Z,17.40
2018-05-03T03:56:09.151Z,17.40
2018-05-03T03:57:11.270Z,17.40
2018-05-03T03:58:13.388Z,17.40
2018-05-03T03:59:14.753Z,17.40
2018-05-03T04:00:16.200Z,17.40
2018-05-03T04:01:17.533Z,17.40
2018-05-03T04:02:18.928Z,17.40
2018-05-03T04:03:20.302Z,17.50
2018-05-03T04:04:21.658Z,17.50
2018-05-03T04:05:23.051Z,17.40
2018-05-03T04:06:24.427Z,17.50
2018-05-03T04:07:25.808Z,17.40
2018-05-03T04:08:28.704Z,17.50
2018-05-03T04:09:30.789Z,17.50
2018-05-03T04:10:32.153Z,17.50
2018-05-03T04:11:33.639Z,17.40
2018-05-03T04:12:35.355Z,17.50
2018-05-03T04:13:37.473Z,17.50
2018-05-03T04:14:39.088Z,17.60
2018-05-03T04:15:40.492Z,17.50
2018-05-03T04:18:04.378Z,17.50
2018-05-03T04:19:25.037Z,17.60
2018-05-03T04:21:01.623Z,17.60
2018-05-03T04:23:36.522Z,17.50
2018-05-03T04:24:56.618Z,17.60
2018-05-03T04:26:01.811Z,17.50
2018-05-03T04:27:03.201Z,17.50
2018-05-03T04:29:08.650Z,17.50
2018-05-03T04:30:10.766Z,17.50
2018-05-03T04:31:12.142Z,17.50
2018-05-03T04:32:14.251Z,17.50
2018-05-03T04:33:15.637Z,17.50
2018-05-03T04:34:18.520Z,17.50
2018-05-03T04:35:19.891Z,17.50
2018-05-03T04:36:21.262Z,17.50
2018-05-03T04:37:24.146Z,17.50
2018-05-03T04:38:26.990Z,17.50
2018-05-03T04:39:28.358Z,17.50
2018-05-03T04:40:29.721Z,17.50
2018-05-03T04:41:31.082Z,17.60
2018-05-03T04:42:32.462Z,17.60
2018-05-03T04:43:33.838Z,17.60
2018-05-03T04:44:35.498Z,17.60
2018-05-03T04:45:36.899Z,17.60
2018-05-03T04:46:38.286Z,17.60
2018-05-03T04:47:39.683Z,17.60
2018-05-03T04:48:41.806Z,17.60
2018-05-03T04:49:43.182Z,17.70
2018-05-03T04:50:45.330Z,17.60
2018-05-03T04:51:46.690Z,17.70
2018-05-03T04:52:48.070Z,17.70
2018-05-03T04:53:49.438Z,17.70
2018-05-03T04:54:50.838Z,17.70
2018-05-03T04:55:52.223Z,17.70
2018-05-03T04:56:53.587Z,17.70
2018-05-03T04:57:54.966Z,17.70
2018-05-03T04:58:56.338Z,17.70
2018-05-03T04:59:58.475Z,17.70
2018-05-03T05:00:59.852Z,17.70
2018-05-03T05:02:01.958Z,17.70
2018-05-03T05:03:03.318Z,17.70
2018-05-03T05:04:04.686Z,17.70
2018-05-03T05:05:06.826Z,17.70
2018-05-03T05:06:08.178Z,17.70
2018-05-03T05:07:10.291Z,17.70
2018-05-03T05:08:11.646Z,17.70
2018-05-03T05:09:13.190Z,17.80
2018-05-03T05:10:21.470Z,17.70
2018-05-03T05:11:22.854Z,17.80
2018-05-03T05:12:24.954Z,17.80
2018-05-03T05:13:26.372Z,17.80
2018-05-03T05:14:28.502Z,17.80
2018-05-03T05:15:30.630Z,17.80
2018-05-03T05:16:32.002Z,17.80
2018-05-03T05:17:33.380Z,17.80
2018-05-03T05:18:35.491Z,17.80
2018-05-03T05:19:38.392Z,17.80
2018-05-03T05:20:39.802Z,17.80
2018-05-03T05:21:41.918Z,17.80
2018-05-03T05:22:44.047Z,17.80
2018-05-03T05:23:46.158Z,17.80
2018-05-03T05:24:47.546Z,17.80
2018-05-03T05:25:48.950Z,17.80
2018-05-03T05:26:51.068Z,17.80
2018-05-03T05:27:52.430Z,17.80
2018-05-03T05:28:53.813Z,17.80
2018-05-03T05:29:55.432Z,17.80
2018-05-03T05:30:56.831Z,17.80
2018-05-03T05:31:58.942Z,17.80
2018-05-03T05:33:01.598Z,17.80
2018-05-03T05:34:02.990Z,17.80
2018-05-03T05:35:04.362Z,17.80
2018-05-03T05:36:06.507Z,17.80
2018-05-03T05:37:07.860Z,17.90
2018-05-03T05:38:09.963Z,17.90
2018-05-03T05:39:11.498Z,17.90
2018-05-03T05:40:12.893Z,17.90
2018-05-03T05:41:14.294Z,17.90
2018-05-03T05:42:15.672Z,17.90
2018-05-03T05:43:17.058Z,17.90
2018-05-03T05:44:18.462Z,17.90
2018-05-03T05:45:21.318Z,17.90
2018-05-03T05:46:23.850Z,17.90
2018-05-03T05:47:25.219Z,18.00
2018-05-03T05:48:26.587Z,18.00
2018-05-03T05:49:29.478Z,18.00
2018-05-03T05:50:30.866Z,18.00
2018-05-03T05:51:32.419Z,18.00
2018-05-03T05:52:33.819Z,18.10
2018-05-03T05:53:35.198Z,18.10
2018-05-03T05:54:36.571Z,18.10
2018-05-03T05:55:37.941Z,18.10
2018-05-03T05:56:39.381Z,18.20
2018-05-03T05:57:40.761Z,18.20
2018-05-03T05:58:43.256Z,18.20
2018-05-03T05:59:44.646Z,18.20
2018-05-03T06:00:46.027Z,18.20
2018-05-03T06:01:47.420Z,18.30
2018-05-03T06:02:48.795Z,18.30
2018-05-03T06:04:53.247Z,18.40
2018-05-03T06:05:54.621Z,18.50
2018-05-03T06:06:56.755Z,18.70
2018-05-03T06:07:58.141Z,18.70
2018-05-03T06:09:00.246Z,18.90
2018-05-03T06:10:02.395Z,19.00
2018-05-03T06:11:03.805Z,19.10
2018-05-03T06:12:05.427Z,19.30
2018-05-03T06:14:10.144Z,19.70
2018-05-03T06:15:11.506Z,19.90
2018-05-03T06:16:13.666Z,20.20
2018-05-03T06:17:15.062Z,20.40
2018-05-03T06:18:16.451Z,20.60
2018-05-03T06:19:17.850Z,20.80
2018-05-03T06:20:20.701Z,21.20
2018-05-03T06:22:25.209Z,21.70
2018-05-03T06:23:26.567Z,21.90
2018-05-03T06:24:27.947Z,22.30
2018-05-03T06:25:30.070Z,22.70
2018-05-03T06:26:31.464Z,22.90
2018-05-03T06:27:32.866Z,23.10
2018-05-03T06:28:34.229Z,23.40
2018-05-03T06:29:35.638Z,23.70
2018-05-03T06:30:37.011Z,23.90
2018-05-03T06:31:38.409Z,24.20
2018-05-03T06:32:39.814Z,24.50
2018-05-03T06:33:41.219Z,24.80
2018-05-03T06:34:43.332Z,25.10
2018-05-03T06:35:44.708Z,25.30
2018-05-03T06:36:46.822Z,25.70
2018-05-03T06:37:48.218Z,25.80
2018-05-03T06:38:49.666Z,26.10
2018-05-03T06:39:51.750Z,26.50
2018-05-03T06:40:53.134Z,26.70
2018-05-03T06:41:55.270Z,27.00
2018-05-03T06:42:56.666Z,27.20
2018-05-03T06:43:58.106Z,27.40
2018-05-03T06:44:59.506Z,27.70
2018-05-03T06:46:01.635Z,28.00
2018-05-03T06:47:03.028Z,28.10
2018-05-03T06:48:04.434Z,28.30
2018-05-03T06:49:05.797Z,28.50
2018-05-03T06:50:08.291Z,28.80
2018-05-03T06:51:09.675Z,28.90
2018-05-03T06:52:11.058Z,29.10
2018-05-03T06:53:13.941Z,29.40
2018-05-03T06:54:15.322Z,29.50
2018-05-03T06:55:16.690Z,29.70
2018-05-03T06:56:18.062Z,29.90
2018-05-03T06:57:19.454Z,30.00
2018-05-03T06:58:21.594Z,30.30
2018-05-03T06:59:22.995Z,30.20
2018-05-03T07:00:24.378Z,30.50
2018-05-03T07:01:26.490Z,30.70
2018-05-03T07:02:27.883Z,30.70
2018-05-03T07:03:30.387Z,30.90
2018-05-03T07:04:31.754Z,31.00
2018-05-03T07:05:33.118Z,31.00
2018-05-03T07:06:34.499Z,31.10
2018-05-03T07:07:35.867Z,31.20
2018-05-03T07:09:40.355Z,31.30
2018-05-03T07:10:41.735Z,31.50
2018-05-03T07:11:43.133Z,31.50
2018-05-03T07:12:44.502Z,31.50
2018-05-03T07:13:45.907Z,31.60
2018-05-03T07:15:50.347Z,31.60
2018-05-03T07:16:51.712Z,31.60
2018-05-03T07:17:53.085Z,31.60
2018-05-03T07:18:55.207Z,31.50
2018-05-03T07:19:56.581Z,31.50
2018-05-03T07:20:57.958Z,31.30
2018-05-03T07:21:59.331Z,31.30
2018-05-03T07:23:00.701Z,31.30
2018-05-03T07:24:03.225Z,31.10
2018-05-03T07:25:04.621Z,31.10
2018-05-03T07:26:06.011Z,31.00
2018-05-03T07:27:08.863Z,30.90
2018-05-03T07:28:10.267Z,30.90
2018-05-03T07:29:11.656Z,30.80
2018-05-03T07:30:13.066Z,30.70
2018-05-03T07:31:14.515Z,30.70
2018-05-03T07:32:15.930Z,30.60
2018-05-03T07:33:17.301Z,30.50
2018-05-03T07:34:19.524Z,30.40
2018-05-03T07:35:20.915Z,30.30
2018-05-03T07:36:22.295Z,30.30
2018-05-03T07:37:24.397Z,30.10
2018-05-03T07:38:25.773Z,30.10
2018-05-03T07:39:28.262Z,30.00
2018-05-03T07:40:29.633Z,29.90
2018-05-03T07:41:30.995Z,29.90
2018-05-03T07:42:32.380Z,29.70
2018-05-03T07:43:33.757Z,29.60
2018-05-03T07:44:36.265Z,29.40
2018-05-03T07:45:38.393Z,29.30
2018-05-03T07:46:39.760Z,29.20
2018-05-03T07:47:45.660Z,29.10
2018-05-03T07:48:47.063Z,29.00
2018-05-03T07:49:48.499Z,28.90
2018-05-03T07:50:50.609Z,28.80
2018-05-03T07:52:55.075Z,28.70
2018-05-03T07:53:56.429Z,28.60
2018-05-03T07:54:57.837Z,28.50
2018-05-03T07:55:59.949Z,28.40
2018-05-03T07:57:01.329Z,28.40
2018-05-03T07:58:03.461Z,28.30
2018-05-03T07:59:04.855Z,28.30
2018-05-03T08:00:06.242Z,28.20
2018-05-03T08:01:07.761Z,28.20
2018-05-03T08:02:09.204Z,28.10
2018-05-03T08:03:10.535Z,28.10
2018-05-03T08:04:11.957Z,28.00
2018-05-03T08:05:13.383Z,28.00
2018-05-03T08:06:14.778Z,27.90
2018-05-03T08:07:16.145Z,27.90
2018-05-03T08:08:18.267Z,27.80
2018-05-03T08:09:19.639Z,27.80
2018-05-03T08:10:21.027Z,27.70
2018-05-03T08:11:23.136Z,27.60
2018-05-03T08:12:24.517Z,27.60
2018-05-03T08:13:25.880Z,27.60
2018-05-03T08:14:27.285Z,27.50
2018-05-03T08:15:28.662Z,27.50
2018-05-03T08:16:30.057Z,27.40
2018-05-03T08:17:31.449Z,27.40
2018-05-03T08:18:33.567Z,27.30
2018-05-03T08:19:34.925Z,27.30
2018-05-03T08:20:36.325Z,27.30
2018-05-03T08:21:37.681Z,27.30
2018-05-03T08:22:39.037Z,27.20
2018-05-03T08:23:40.416Z,27.20
2018-05-03T08:24:43.286Z,27.10
2018-05-03T08:25:46.153Z,27.10
2018-05-03T08:26:48.269Z,27.10
2018-05-03T08:27:49.624Z,27.10
2018-05-03T08:28:50.993Z,27.00
2018-05-03T08:30:55.476Z,26.90
2018-05-03T08:31:56.845Z,26.90
2018-05-03T08:32:58.945Z,26.80
2018-05-03T08:34:00.301Z,26.80
2018-05-03T08:35:01.673Z,26.70
2018-05-03T08:36:03.793Z,26.60
2018-05-03T08:37:05.185Z,26.60
2018-05-03T08:38:06.577Z,26.60
2018-05-03T08:39:07.947Z,26.50
2018-05-03T08:40:10.054Z,26.40
2018-05-03T08:41:11.453Z,26.40
2018-05-03T08:42:12.849Z,26.30
2018-05-03T08:43:16.257Z,26.30
2018-05-03T08:44:17.648Z,26.20
2018-05-03T08:45:25.944Z,26.10
2018-05-03T08:46:27.355Z,26.10
2018-05-03T08:47:29.485Z,26.00
2018-05-03T08:48:30.853Z,25.90
2018-05-03T08:51:39.545Z,25.70
2018-05-03T08:52:41.648Z,25.60
2018-05-03T08:53:43.028Z,25.50
2018-05-03T08:54:44.421Z,25.50
2018-05-03T08:55:45.849Z,25.50
2018-05-03T08:56:48.317Z,25.40
2018-05-03T08:57:51.163Z,25.40
2018-05-03T08:58:54.037Z,25.30
2018-05-03T08:59:55.428Z,25.30
2018-05-03T09:00:56.884Z,25.20
2018-05-03T09:01:58.942Z,25.20
2018-05-03T09:03:01.047Z,25.20
2018-05-03T09:04:03.181Z,25.10
2018-05-03T09:05:04.573Z,25.10
2018-05-03T09:06:05.945Z,25.10
2018-05-03T09:07:07.336Z,25.10
2018-05-03T09:08:08.755Z,25.00
2018-05-03T09:09:10.141Z,25.10
2018-05-03T09:10:11.511Z,25.10
2018-05-03T09:11:12.947Z,25.00
2018-05-03T09:12:14.327Z,25.10
2018-05-03T09:13:15.734Z,25.10
2018-05-03T09:14:17.122Z,25.10
2018-05-03T09:15:18.501Z,25.20
2018-05-03T09:16:19.865Z,25.20
2018-05-03T09:17:21.987Z,25.30
2018-05-03T09:18:23.362Z,25.30
2018-05-03T09:19:25.618Z,25.40
2018-05-03T09:20:26.969Z,25.40
2018-05-03T09:22:32.253Z,25.50
2018-05-03T09:23:33.647Z,25.60
2018-05-03T09:24:35.743Z,25.70
2018-05-03T09:25:37.102Z,25.70
2018-05-03T09:26:38.509Z,25.70
2018-05-03T09:27:39.945Z,25.80
2018-05-03T09:28:41.307Z,25.80
2018-05-03T09:29:42.678Z,25.80
2018-05-03T09:30:44.779Z,25.90
2018-05-03T09:31:46.189Z,25.90
2018-05-03T09:32:47.614Z,25.90
2018-05-03T09:33:48.995Z,25.90
2018-05-03T09:34:50.389Z,25.90
2018-05-03T09:35:51.766Z,26.00
2018-05-03T09:36:53.132Z,26.00
2018-05-03T09:37:54.519Z,26.00
2018-05-03T09:38:56.673Z,26.00
2018-05-03T09:39:58.771Z,26.10
2018-05-03T09:41:01.615Z,26.10
2018-05-03T09:42:03.727Z,26.20
2018-05-03T09:43:05.152Z,26.20
2018-05-03T09:44:06.527Z,26.30
2018-05-03T09:45:07.880Z,26.10
2018-05-03T09:46:09.987Z,26.30
2018-05-03T09:47:11.363Z,26.30
2018-05-03T09:48:13.495Z,26.30
2018-05-03T09:49:14.911Z,26.30
2018-05-03T09:50:16.288Z,26.30
2018-05-03T09:51:17.653Z,26.30
2018-05-03T09:52:19.813Z,26.30
2018-05-03T09:53:21.213Z,26.30
2018-05-03T09:54:22.601Z,26.30
2018-05-03T09:55:23.981Z,26.30
2018-05-03T09:56:26.105Z,26.30
2018-05-03T09:57:27.486Z,26.30
2018-05-03T09:58:28.875Z,26.30
2018-05-03T09:59:30.287Z,26.30
2018-05-03T10:00:33.159Z,26.30
2018-05-03T10:01:35.273Z,26.30
2018-05-03T10:02:36.657Z,26.30
2018-05-03T10:03:38.785Z,26.30
2018-05-03T10:04:40.168Z,26.30
2018-05-03T10:05:41.553Z,26.30
2018-05-03T10:06:42.934Z,26.30
2018-05-03T10:07:45.038Z,26.30
2018-05-03T10:08:46.445Z,26.30
2018-05-03T10:09:47.942Z,26.30
2018-05-03T10:10:49.335Z,26.30
2018-05-03T10:11:51.441Z,26.30
2018-05-03T10:12:52.801Z,26.30
2018-05-03T10:13:54.959Z,26.20
2018-05-03T10:14:57.081Z,26.20
2018-05-03T10:15:58.457Z,26.20
2018-05-03T10:16:59.842Z,26.20
2018-05-03T10:18:01.213Z,26.20
2018-05-03T10:19:04.102Z,26.10
2018-05-03T10:20:06.249Z,26.10
2018-05-03T10:21:07.622Z,26.10
2018-05-03T10:22:08.989Z,26.10
2018-05-03T10:23:10.353Z,26.10
2018-05-03T10:24:11.736Z,26.10
2018-05-03T10:25:13.101Z,26.10
2018-05-03T10:26:14.489Z,26.10
2018-05-03T10:27:16.617Z,26.10
2018-05-03T10:28:17.979Z,26.10
2018-05-03T10:29:20.121Z,26.10
2018-05-03T10:30:21.477Z,26.10
2018-05-03T10:31:22.825Z,26.00
2018-05-03T10:32:25.669Z,26.00
2018-05-03T10:33:27.041Z,26.00
2018-05-03T10:34:29.393Z,26.00
2018-05-03T10:35:31.531Z,25.90
2018-05-03T10:36:32.889Z,25.90
2018-05-03T10:37:35.377Z,25.90
2018-05-03T10:38:38.217Z,25.90
2018-05-03T10:39:39.699Z,25.90
2018-05-03T10:40:41.102Z,25.80
2018-05-03T10:41:43.205Z,25.80
2018-05-03T10:42:44.585Z,25.80
2018-05-03T10:43:45.961Z,25.80
2018-05-03T10:44:48.837Z,25.80
2018-05-03T10:45:50.209Z,25.80
2018-05-03T10:46:51.601Z,25.80
2018-05-03T10:47:53.717Z,25.80
2018-05-03T10:48:55.103Z,25.80
2018-05-03T10:49:57.233Z,25.70
2018-05-03T10:50:58.618Z,25.70
2018-05-03T10:52:00.159Z,25.70
2018-05-03T10:53:01.530Z,25.70
2018-05-03T10:54:02.925Z,25.70
2018-05-03T10:55:04.337Z,25.70
2018-05-03T10:56:05.715Z,25.70
2018-05-03T10:57:07.097Z,25.70
2018-05-03T10:58:08.479Z,25.70
2018-05-03T10:59:09.881Z,25.70
2018-05-03T11:00:11.321Z,25.70
2018-05-03T11:01:12.694Z,25.70
2018-05-03T11:02:14.054Z,25.60
2018-05-03T11:03:15.425Z,25.60
2018-05-03T11:04:16.777Z,25.60
2018-05-03T11:05:18.249Z,25.60
2018-05-03T11:06:19.592Z,25.60
2018-05-03T11:08:24.101Z,25.60
2018-05-03T11:10:28.573Z,25.60
2018-05-03T11:11:30.691Z,25.60
2018-05-03T11:12:32.057Z,25.60
2018-05-03T11:13:33.437Z,25.50
2018-05-03T11:14:35.553Z,25.50
2018-05-03T11:15:36.926Z,25.50
2018-05-03T11:16:38.376Z,25.50
2018-05-03T11:17:41.168Z,25.60
2018-05-03T11:18:42.603Z,25.60
2018-05-03T11:19:44.235Z,25.60
2018-05-03T11:21:48.694Z,25.60
2018-05-03T11:22:50.067Z,25.60
2018-05-03T11:24:54.584Z,25.50
2018-05-03T11:25:56.783Z,25.50
2018-05-03T11:26:59.587Z,25.50
2018-05-03T11:28:00.972Z,25.50
2018-05-03T11:29:03.459Z,25.50
2018-05-03T11:30:04.827Z,25.50
2018-05-03T11:31:06.231Z,25.50
2018-05-03T11:32:08.342Z,25.40
2018-05-03T11:33:09.754Z,25.50
2018-05-03T11:34:11.878Z,25.50
2018-05-03T11:35:14.757Z,25.40
2018-05-03T11:37:19.284Z,25.40
2018-05-03T11:38:21.387Z,25.20
2018-05-03T11:39:22.771Z,25.30
2018-05-03T11:41:28.771Z,25.20
2018-05-03T11:42:30.150Z,25.20
2018-05-03T11:43:32.246Z,25.20
2018-05-03T11:44:33.617Z,25.10
2018-05-03T11:45:35.051Z,25.20
2018-05-03T11:46:36.497Z,25.20
2018-05-03T11:47:37.912Z,25.10
2018-05-03T11:48:39.283Z,25.10
2018-05-03T11:49:41.399Z,25.10
2018-05-03T11:50:42.790Z,25.10
2018-05-03T11:51:44.187Z,25.10
2018-05-03T11:52:45.612Z,25.10
2018-05-03T11:53:47.035Z,25.10
2018-05-03T11:54:48.386Z,25.10
2018-05-03T11:56:53.671Z,25.10
2018-05-03T11:57:55.110Z,25.10
2018-05-03T11:58:56.519Z,25.10
2018-05-03T11:59:57.885Z,25.10
2018-05-03T12:00:59.378Z,25.20
2018-05-03T12:02:00.815Z,25.10
2018-05-03T12:03:03.034Z,25.20
2018-05-03T12:04:04.446Z,25.20
2018-05-03T12:05:05.861Z,25.20
2018-05-03T12:06:08.046Z,25.20
2018-05-03T12:07:09.428Z,25.20
2018-05-03T12:09:13.899Z,25.20
2018-05-03T12:10:15.358Z,25.20
2018-05-03T12:11:18.147Z,25.20
2018-05-03T12:12:19.539Z,25.20
2018-05-03T12:13:20.934Z,25.20
2018-05-03T12:14:23.075Z,25.20
2018-05-03T12:15:24.443Z,25.20
2018-05-03T12:16:26.555Z,25.20
2018-05-03T12:17:27.981Z,25.10
2018-05-03T12:18:29.414Z,25.10
2018-05-03T12:19:31.048Z,25.10
2018-05-03T12:20:32.487Z,25.10
2018-05-03T12:21:33.872Z,25.00
2018-05-03T12:22:35.347Z,25.00
2018-05-03T12:23:36.790Z,25.00
2018-05-03T12:24:38.151Z,25.00
2018-05-03T12:25:39.535Z,25.00
2018-05-03T12:27:44.794Z,25.00
2018-05-03T12:28:47.056Z,25.00
2018-05-03T12:29:48.454Z,25.00
2018-05-03T12:30:49.842Z,25.00
2018-05-03T12:31:51.230Z,25.00
2018-05-03T12:32:52.683Z,25.00
2018-05-03T12:33:54.179Z,25.00
2018-05-03T12:34:55.631Z,25.00
2018-05-03T12:35:58.086Z,25.00
2018-05-03T12:36:59.486Z,25.00
2018-05-03T12:38:01.611Z,25.00
2018-05-03T12:39:03.054Z,25.00
2018-05-03T12:40:04.450Z,25.00
2018-05-03T12:41:05.846Z,25.00
2018-05-03T12:42:07.990Z,25.00
2018-05-03T12:43:09.404Z,25.00
2018-05-03T12:44:10.783Z,25.00
2018-05-03T12:45:12.170Z,25.00
2018-05-03T12:46:13.550Z,25.00
2018-05-03T12:47:14.930Z,24.90
2018-05-03T12:48:17.310Z,24.90
2018-05-03T12:49:18.667Z,24.90
2018-05-03T12:50:20.035Z,25.00
2018-05-03T12:51:21.395Z,25.00
2018-05-03T12:52:23.495Z,24.90
2018-05-03T12:53:24.911Z,25.00
2018-05-03T12:54:26.283Z,25.00
2018-05-03T12:55:27.683Z,25.00
2018-05-03T12:56:29.058Z,25.00
2018-05-03T12:57:30.495Z,25.00
2018-05-03T12:58:31.968Z,25.00
2018-05-03T12:59:33.342Z,25.00
2018-05-03T13:00:34.734Z,25.00
2018-05-03T13:01:36.240Z,25.00
2018-05-03T13:02:37.614Z,25.10
2018-05-03T13:03:40.139Z,25.00
2018-05-03T13:04:41.518Z,25.10
2018-05-03T13:05:42.895Z,25.10
2018-05-03T13:06:44.996Z,25.10
2018-05-03T13:07:46.383Z,25.10
2018-05-03T13:08:48.531Z,25.00
2018-05-03T13:09:50.699Z,25.00
2018-05-03T13:10:53.171Z,24.90
2018-05-03T13:11:55.291Z,24.90
2018-05-03T13:12:56.670Z,24.90
2018-05-03T13:13:58.814Z,24.90
2018-05-03T13:16:03.311Z,24.80
2018-05-03T13:18:08.535Z,24.80
2018-05-03T13:19:09.963Z,24.80
2018-05-03T13:20:11.411Z,24.70
2018-05-03T13:21:12.819Z,24.70
2018-05-03T13:26:26.560Z,24.60
2018-05-03T13:28:31.894Z,24.60
2018-05-03T13:30:36.409Z,24.60
2018-05-03T13:33:43.941Z,24.60
2018-05-03T13:34:45.323Z,24.60
2018-05-03T13:37:52.850Z,24.50
2018-05-03T13:38:54.960Z,24.50
2018-05-03T13:41:00.937Z,24.50
2018-05-03T13:45:11.625Z,24.50
2018-05-03T13:49:23.830Z,24.40
2018-05-03T13:51:28.291Z,24.40
2018-05-03T13:52:29.751Z,24.40
2018-05-03T13:55:37.488Z,24.30
2018-05-03T13:56:38.871Z,24.30
2018-05-03T13:58:43.384Z,24.30
2018-05-03T13:59:44.747Z,24.30
2018-05-03T14:02:52.541Z,24.30
2018-05-03T14:03:53.981Z,24.30
2018-05-03T14:05:59.781Z,24.30
2018-05-03T14:08:04.389Z,24.30
2018-05-03T14:09:06.867Z,24.30
2018-05-03T14:13:17.523Z,24.20
2018-05-03T14:15:22.011Z,24.20
2018-05-03T14:16:23.475Z,24.20
2018-05-03T14:17:25.987Z,24.20
2018-05-03T14:18:27.377Z,24.10
2018-05-03T14:19:29.849Z,24.10
2018-05-03T14:24:43.593Z,24.10
2018-05-03T14:28:54.977Z,24.10
2018-05-03T14:33:08.205Z,24.00
2018-05-03T14:35:14.127Z,23.90
2018-05-03T14:38:23.185Z,23.90
2018-05-03T14:39:24.568Z,23.90
2018-05-03T14:46:45.232Z,23.80
2018-05-03T14:47:46.628Z,23.80
2018-05-03T14:48:49.097Z,23.70
2018-05-03T14:50:55.147Z,23.70
2018-05-03T14:55:05.816Z,23.60
2018-05-03T14:57:10.262Z,23.40
2018-05-03T14:58:13.142Z,23.50
2018-05-03T14:59:14.532Z,23.50
2018-05-03T15:01:18.966Z,23.50
2018-05-03T15:02:21.158Z,23.40
2018-05-03T15:03:22.567Z,23.40
2018-05-03T15:04:23.945Z,23.40
2018-05-03T15:05:26.053Z,23.30
2018-05-03T15:08:33.626Z,23.30
2018-05-03T15:09:34.991Z,23.30
2018-05-03T15:11:40.965Z,23.20
2018-05-03T15:12:43.898Z,23.20